sensor_id;sensor_type;location;lat;lon;timestamp;P1;durP1;ratioP1;P2;durP2;ratioP2
16181;SDS011;8197;51.664;7.114;2023-09-30T00:04:51;31.83;;;6.13;;
16181;SDS011;8197;51.664;7.114;2023-09-30T00:09:55;29.80;;;4.53;;
16181;SDS011;8197;51.664;7.114;2023-09-30T00:14:59;27.93;;;4.63;;
16181;SDS011;8197;51.664;7.114;2023-09-30T00:20:02;29.33;;;4.93;;
16181;SDS011;8197;51.664;7.114;2023-09-30T00:25:08;31.30;;;5.17;;
16181;SDS011;8197;51.664;7.114;2023-09-30T00:30:12;29.57;;;5.03;;
16181;SDS011;8197;51.664;7.114;2023-09-30T00:35:16;27.20;;;5.00;;
16181;SDS011;8197;51.664;7.114;2023-09-30T00:40:19;28.23;;;4.47;;
16181;SDS011;8197;51.664;7.114;2023-09-30T00:45:23;31.50;;;5.40;;
16181;SDS011;8197;51.664;7.114;2023-09-30T00:50:26;29.53;;;5.10;;
16181;SDS011;8197;51.664;7.114;2023-09-30T00:55:29;31.40;;;5.43;;
16181;SDS011;8197;51.664;7.114;2023-09-30T01:00:34;33.73;;;5.10;;
16181;SDS011;8197;51.664;7.114;2023-09-30T01:05:37;26.50;;;5.20;;
16181;SDS011;8197;51.664;7.114;2023-09-30T01:10:40;25.53;;;5.00;;
16181;SDS011;8197;51.664;7.114;2023-09-30T01:15:45;32.57;;;5.40;;
16181;SDS011;8197;51.664;7.114;2023-09-30T01:20:48;29.13;;;5.40;;
16181;SDS011;8197;51.664;7.114;2023-09-30T01:25:54;31.40;;;5.50;;
16181;SDS011;8197;51.664;7.114;2023-09-30T01:30:58;30.93;;;5.47;;
16181;SDS011;8197;51.664;7.114;2023-09-30T01:36:01;27.37;;;4.47;;
16181;SDS011;8197;51.664;7.114;2023-09-30T01:41:05;31.30;;;5.30;;
16181;SDS011;8197;51.664;7.114;2023-09-30T01:46:08;26.37;;;4.23;;
16181;SDS011;8197;51.664;7.114;2023-09-30T01:51:11;26.37;;;4.70;;
16181;SDS011;8197;51.664;7.114;2023-09-30T01:56:15;28.23;;;4.17;;
16181;SDS011;8197;51.664;7.114;2023-09-30T02:01:18;23.70;;;4.63;;
16181;SDS011;8197;51.664;7.114;2023-09-30T02:06:22;25.83;;;4.50;;
16181;SDS011;8197;51.664;7.114;2023-09-30T02:11:26;23.37;;;4.40;;
16181;SDS011;8197;51.664;7.114;2023-09-30T02:16:30;25.23;;;4.73;;
16181;SDS011;8197;51.664;7.114;2023-09-30T02:21:33;30.03;;;4.50;;
16181;SDS011;8197;51.664;7.114;2023-09-30T02:26:38;26.80;;;4.70;;
16181;SDS011;8197;51.664;7.114;2023-09-30T02:31:41;28.20;;;5.60;;
16181;SDS011;8197;51.664;7.114;2023-09-30T02:36:44;23.30;;;4.43;;
16181;SDS011;8197;51.664;7.114;2023-09-30T02:41:48;28.67;;;4.57;;
16181;SDS011;8197;51.664;7.114;2023-09-30T02:46:53;24.30;;;4.77;;
16181;SDS011;8197;51.664;7.114;2023-09-30T02:51:56;30.27;;;5.43;;
16181;SDS011;8197;51.664;7.114;2023-09-30T02:57:00;24.73;;;5.17;;
16181;SDS011;8197;51.664;7.114;2023-09-30T03:02:05;22.47;;;4.10;;
16181;SDS011;8197;51.664;7.114;2023-09-30T03:07:09;26.37;;;4.53;;
16181;SDS011;8197;51.664;7.114;2023-09-30T03:12:13;26.70;;;5.30;;
16181;SDS011;8197;51.664;7.114;2023-09-30T03:17:16;25.20;;;5.13;;
16181;SDS011;8197;51.664;7.114;2023-09-30T03:22:20;24.03;;;4.30;;
16181;SDS011;8197;51.664;7.114;2023-09-30T03:27:24;23.47;;;4.77;;
16181;SDS011;8197;51.664;7.114;2023-09-30T03:32:27;33.00;;;6.70;;
16181;SDS011;8197;51.664;7.114;2023-09-30T03:37:33;31.63;;;6.40;;
16181;SDS011;8197;51.664;7.114;2023-09-30T03:42:38;26.47;;;6.33;;
16181;SDS011;8197;51.664;7.114;2023-09-30T03:47:41;29.80;;;6.00;;
16181;SDS011;8197;51.664;7.114;2023-09-30T03:52:45;28.70;;;5.13;;
16181;SDS011;8197;51.664;7.114;2023-09-30T03:57:50;32.70;;;7.20;;
16181;SDS011;8197;51.664;7.114;2023-09-30T04:02:53;26.13;;;5.40;;
16181;SDS011;8197;51.664;7.114;2023-09-30T04:08:00;31.87;;;5.93;;
16181;SDS011;8197;51.664;7.114;2023-09-30T04:13:04;29.33;;;6.10;;
16181;SDS011;8197;51.664;7.114;2023-09-30T04:18:07;32.00;;;5.80;;
16181;SDS011;8197;51.664;7.114;2023-09-30T04:23:10;27.83;;;6.53;;
16181;SDS011;8197;51.664;7.114;2023-09-30T04:28:15;31.97;;;6.93;;
16181;SDS011;8197;51.664;7.114;2023-09-30T04:33:21;28.80;;;5.90;;
16181;SDS011;8197;51.664;7.114;2023-09-30T04:38:26;32.33;;;6.83;;
16181;SDS011;8197;51.664;7.114;2023-09-30T04:43:30;31.93;;;6.30;;
16181;SDS011;8197;51.664;7.114;2023-09-30T04:48:34;32.00;;;6.60;;
16181;SDS011;8197;51.664;7.114;2023-09-30T04:53:37;29.53;;;7.33;;
16181;SDS011;8197;51.664;7.114;2023-09-30T04:58:41;28.97;;;6.60;;
16181;SDS011;8197;51.664;7.114;2023-09-30T05:03:48;30.67;;;6.30;;
16181;SDS011;8197;51.664;7.114;2023-09-30T05:08:51;28.17;;;7.17;;
16181;SDS011;8197;51.664;7.114;2023-09-30T05:13:55;32.90;;;7.60;;
16181;SDS011;8197;51.664;7.114;2023-09-30T05:18:59;31.77;;;7.27;;
16181;SDS011;8197;51.664;7.114;2023-09-30T05:24:02;38.07;;;7.90;;
16181;SDS011;8197;51.664;7.114;2023-09-30T05:29:07;35.13;;;6.90;;
16181;SDS011;8197;51.664;7.114;2023-09-30T05:34:10;36.23;;;8.07;;
16181;SDS011;8197;51.664;7.114;2023-09-30T05:39:13;33.83;;;7.23;;
16181;SDS011;8197;51.664;7.114;2023-09-30T05:44:22;36.40;;;8.37;;
16181;SDS011;8197;51.664;7.114;2023-09-30T05:49:27;33.07;;;8.63;;
16181;SDS011;8197;51.664;7.114;2023-09-30T05:54:30;39.43;;;9.77;;
16181;SDS011;8197;51.664;7.114;2023-09-30T05:59:34;38.93;;;9.40;;
16181;SDS011;8197;51.664;7.114;2023-09-30T06:04:37;39.00;;;9.37;;
16181;SDS011;8197;51.664;7.114;2023-09-30T06:09:40;42.87;;;11.43;;
16181;SDS011;8197;51.664;7.114;2023-09-30T06:14:45;44.23;;;9.50;;
16181;SDS011;8197;51.664;7.114;2023-09-30T06:19:48;35.90;;;7.97;;
16181;SDS011;8197;51.664;7.114;2023-09-30T06:24:51;25.90;;;6.60;;
16181;SDS011;8197;51.664;7.114;2023-09-30T06:29:56;41.70;;;9.30;;
16181;SDS011;8197;51.664;7.114;2023-09-30T06:34:58;40.53;;;9.23;;
16181;SDS011;8197;51.664;7.114;2023-09-30T06:40:01;29.20;;;7.00;;
16181;SDS011;8197;51.664;7.114;2023-09-30T06:45:07;36.00;;;10.57;;
16181;SDS011;8197;51.664;7.114;2023-09-30T06:50:11;34.30;;;10.00;;
16181;SDS011;8197;51.664;7.114;2023-09-30T06:55:17;31.10;;;8.10;;
16181;SDS011;8197;51.664;7.114;2023-09-30T07:00:22;32.90;;;8.57;;
16181;SDS011;8197;51.664;7.114;2023-09-30T07:05:26;36.70;;;11.03;;
16181;SDS011;8197;51.664;7.114;2023-09-30T07:10:30;36.73;;;12.50;;
16181;SDS011;8197;51.664;7.114;2023-09-30T07:15:34;34.17;;;9.27;;
16181;SDS011;8197;51.664;7.114;2023-09-30T07:20:38;43.97;;;13.63;;
16181;SDS011;8197;51.664;7.114;2023-09-30T07:25:41;43.27;;;13.33;;
16181;SDS011;8197;51.664;7.114;2023-09-30T07:30:45;37.17;;;11.73;;
16181;SDS011;8197;51.664;7.114;2023-09-30T07:35:48;31.97;;;7.90;;
16181;SDS011;8197;51.664;7.114;2023-09-30T07:40:51;36.37;;;12.10;;
16181;SDS011;8197;51.664;7.114;2023-09-30T07:45:55;33.63;;;7.97;;
16181;SDS011;8197;51.664;7.114;2023-09-30T07:51:00;38.43;;;8.57;;
16181;SDS011;8197;51.664;7.114;2023-09-30T07:56:03;34.80;;;7.60;;
16181;SDS011;8197;51.664;7.114;2023-09-30T08:01:08;32.33;;;9.33;;
16181;SDS011;8197;51.664;7.114;2023-09-30T08:06:11;31.17;;;8.17;;
16181;SDS011;8197;51.664;7.114;2023-09-30T08:11:14;30.63;;;10.67;;
16181;SDS011;8197;51.664;7.114;2023-09-30T08:16:19;36.50;;;13.03;;
16181;SDS011;8197;51.664;7.114;2023-09-30T08:21:22;29.73;;;8.33;;
16181;SDS011;8197;51.664;7.114;2023-09-30T08:26:25;38.87;;;9.57;;
16181;SDS011;8197;51.664;7.114;2023-09-30T08:31:29;33.13;;;7.87;;
16181;SDS011;8197;51.664;7.114;2023-09-30T08:36:34;40.27;;;10.97;;
16181;SDS011;8197;51.664;7.114;2023-09-30T08:41:37;32.10;;;10.33;;
16181;SDS011;8197;51.664;7.114;2023-09-30T08:46:41;28.47;;;9.00;;
16181;SDS011;8197;51.664;7.114;2023-09-30T08:51:46;31.00;;;8.83;;
16181;SDS011;8197;51.664;7.114;2023-09-30T08:56:51;32.47;;;9.87;;
16181;SDS011;8197;51.664;7.114;2023-09-30T09:01:56;31.00;;;7.80;;
16181;SDS011;8197;51.664;7.114;2023-09-30T09:07:00;29.43;;;8.13;;
16181;SDS011;8197;51.664;7.114;2023-09-30T09:12:03;28.83;;;7.53;;
16181;SDS011;8197;51.664;7.114;2023-09-30T09:17:08;28.17;;;7.40;;
16181;SDS011;8197;51.664;7.114;2023-09-30T09:22:13;28.70;;;8.17;;
16181;SDS011;8197;51.664;7.114;2023-09-30T09:27:16;29.63;;;7.37;;
16181;SDS011;8197;51.664;7.114;2023-09-30T09:32:22;25.87;;;5.63;;
16181;SDS011;8197;51.664;7.114;2023-09-30T09:37:25;25.47;;;6.50;;
16181;SDS011;8197;51.664;7.114;2023-09-30T09:42:29;24.10;;;5.70;;
16181;SDS011;8197;51.664;7.114;2023-09-30T09:47:39;22.30;;;4.50;;
16181;SDS011;8197;51.664;7.114;2023-09-30T09:52:42;20.30;;;4.80;;
16181;SDS011;8197;51.664;7.114;2023-09-30T09:57:46;26.77;;;4.30;;
16181;SDS011;8197;51.664;7.114;2023-09-30T10:02:51;23.40;;;4.93;;
16181;SDS011;8197;51.664;7.114;2023-09-30T10:07:56;24.37;;;5.10;;
16181;SDS011;8197;51.664;7.114;2023-09-30T10:13:02;23.03;;;4.40;;
16181;SDS011;8197;51.664;7.114;2023-09-30T10:18:08;21.47;;;3.80;;
16181;SDS011;8197;51.664;7.114;2023-09-30T10:23:23;22.60;;;4.17;;
16181;SDS011;8197;51.664;7.114;2023-09-30T10:28:33;27.33;;;4.30;;
16181;SDS011;8197;51.664;7.114;2023-09-30T10:39:12;22.07;;;4.60;;
16181;SDS011;8197;51.664;7.114;2023-09-30T10:44:34;24.80;;;5.90;;
16181;SDS011;8197;51.664;7.114;2023-09-30T10:49:38;26.63;;;6.50;;
16181;SDS011;8197;51.664;7.114;2023-09-30T10:54:42;22.77;;;5.27;;
16181;SDS011;8197;51.664;7.114;2023-09-30T10:59:47;22.47;;;5.80;;
16181;SDS011;8197;51.664;7.114;2023-09-30T11:04:50;35.73;;;6.57;;
16181;SDS011;8197;51.664;7.114;2023-09-30T11:09:54;22.27;;;5.00;;
16181;SDS011;8197;51.664;7.114;2023-09-30T11:14:58;21.23;;;5.17;;
16181;SDS011;8197;51.664;7.114;2023-09-30T11:20:03;25.57;;;5.77;;
16181;SDS011;8197;51.664;7.114;2023-09-30T11:25:15;30.00;;;6.87;;
16181;SDS011;8197;51.664;7.114;2023-09-30T11:30:20;25.17;;;5.23;;
16181;SDS011;8197;51.664;7.114;2023-09-30T11:35:23;25.23;;;5.30;;
16181;SDS011;8197;51.664;7.114;2023-09-30T11:40:28;25.13;;;5.30;;
16181;SDS011;8197;51.664;7.114;2023-09-30T11:45:31;22.50;;;4.40;;
16181;SDS011;8197;51.664;7.114;2023-09-30T11:50:45;19.60;;;3.80;;
16181;SDS011;8197;51.664;7.114;2023-09-30T11:55:50;22.50;;;3.77;;
16181;SDS011;8197;51.664;7.114;2023-09-30T12:00:57;24.07;;;3.93;;
16181;SDS011;8197;51.664;7.114;2023-09-30T12:06:01;20.53;;;3.43;;
16181;SDS011;8197;51.664;7.114;2023-09-30T12:11:06;24.20;;;4.37;;
16181;SDS011;8197;51.664;7.114;2023-09-30T12:16:09;18.13;;;2.80;;
16181;SDS011;8197;51.664;7.114;2023-09-30T12:21:12;20.37;;;3.53;;
16181;SDS011;8197;51.664;7.114;2023-09-30T12:26:17;26.40;;;3.80;;
16181;SDS011;8197;51.664;7.114;2023-09-30T12:31:21;25.07;;;3.80;;
16181;SDS011;8197;51.664;7.114;2023-09-30T12:36:24;18.97;;;3.30;;
16181;SDS011;8197;51.664;7.114;2023-09-30T12:41:29;22.03;;;3.67;;
16181;SDS011;8197;51.664;7.114;2023-09-30T12:46:34;20.63;;;3.20;;
16181;SDS011;8197;51.664;7.114;2023-09-30T12:51:38;23.90;;;3.17;;
16181;SDS011;8197;51.664;7.114;2023-09-30T12:56:43;23.70;;;3.70;;
16181;SDS011;8197;51.664;7.114;2023-09-30T13:01:48;20.53;;;3.50;;
16181;SDS011;8197;51.664;7.114;2023-09-30T13:06:51;20.17;;;2.83;;
16181;SDS011;8197;51.664;7.114;2023-09-30T13:11:56;18.10;;;3.40;;
16181;SDS011;8197;51.664;7.114;2023-09-30T13:17:01;23.50;;;3.50;;
16181;SDS011;8197;51.664;7.114;2023-09-30T13:22:06;19.73;;;3.30;;
16181;SDS011;8197;51.664;7.114;2023-09-30T13:27:20;19.93;;;3.20;;
16181;SDS011;8197;51.664;7.114;2023-09-30T13:32:23;21.70;;;3.30;;
16181;SDS011;8197;51.664;7.114;2023-09-30T13:37:26;20.00;;;3.80;;
16181;SDS011;8197;51.664;7.114;2023-09-30T13:42:35;23.20;;;4.03;;
16181;SDS011;8197;51.664;7.114;2023-09-30T13:47:38;17.90;;;3.07;;
16181;SDS011;8197;51.664;7.114;2023-09-30T13:52:41;23.90;;;4.50;;
16181;SDS011;8197;51.664;7.114;2023-09-30T13:57:46;23.77;;;4.20;;
16181;SDS011;8197;51.664;7.114;2023-09-30T14:02:49;22.33;;;4.17;;
16181;SDS011;8197;51.664;7.114;2023-09-30T14:07:52;21.83;;;3.80;;
16181;SDS011;8197;51.664;7.114;2023-09-30T14:12:57;21.53;;;3.53;;
16181;SDS011;8197;51.664;7.114;2023-09-30T14:18:00;20.87;;;3.87;;
16181;SDS011;8197;51.664;7.114;2023-09-30T14:23:04;23.37;;;3.70;;
16181;SDS011;8197;51.664;7.114;2023-09-30T14:28:08;21.20;;;3.50;;
16181;SDS011;8197;51.664;7.114;2023-09-30T14:33:11;18.10;;;3.23;;
16181;SDS011;8197;51.664;7.114;2023-09-30T14:38:15;19.67;;;3.00;;
16181;SDS011;8197;51.664;7.114;2023-09-30T14:43:19;20.40;;;3.70;;
16181;SDS011;8197;51.664;7.114;2023-09-30T14:48:22;22.17;;;4.17;;
16181;SDS011;8197;51.664;7.114;2023-09-30T14:53:25;18.80;;;3.87;;
16181;SDS011;8197;51.664;7.114;2023-09-30T14:58:29;21.10;;;4.50;;
16181;SDS011;8197;51.664;7.114;2023-09-30T15:03:32;26.27;;;5.70;;
16181;SDS011;8197;51.664;7.114;2023-09-30T15:08:38;21.57;;;4.70;;
16181;SDS011;8197;51.664;7.114;2023-09-30T15:13:42;23.03;;;4.70;;
16181;SDS011;8197;51.664;7.114;2023-09-30T15:18:47;24.13;;;5.47;;
16181;SDS011;8197;51.664;7.114;2023-09-30T15:23:50;22.70;;;3.80;;
16181;SDS011;8197;51.664;7.114;2023-09-30T15:28:55;22.53;;;4.87;;
16181;SDS011;8197;51.664;7.114;2023-09-30T15:33:58;26.27;;;4.83;;
16181;SDS011;8197;51.664;7.114;2023-09-30T15:39:02;24.33;;;4.20;;
16181;SDS011;8197;51.664;7.114;2023-09-30T15:44:06;23.80;;;4.00;;
16181;SDS011;8197;51.664;7.114;2023-09-30T15:49:09;22.53;;;4.20;;
16181;SDS011;8197;51.664;7.114;2023-09-30T15:54:12;24.10;;;4.20;;
16181;SDS011;8197;51.664;7.114;2023-09-30T15:59:17;19.80;;;3.83;;
16181;SDS011;8197;51.664;7.114;2023-09-30T16:04:20;21.23;;;5.03;;
16181;SDS011;8197;51.664;7.114;2023-09-30T16:09:23;20.97;;;3.43;;
16181;SDS011;8197;51.664;7.114;2023-09-30T16:14:27;23.03;;;4.60;;
16181;SDS011;8197;51.664;7.114;2023-09-30T16:19:30;21.03;;;3.57;;
16181;SDS011;8197;51.664;7.114;2023-09-30T16:24:35;20.97;;;4.00;;
16181;SDS011;8197;51.664;7.114;2023-09-30T16:29:39;20.73;;;4.20;;
16181;SDS011;8197;51.664;7.114;2023-09-30T16:34:42;18.40;;;3.80;;
16181;SDS011;8197;51.664;7.114;2023-09-30T16:39:45;25.00;;;5.43;;
16181;SDS011;8197;51.664;7.114;2023-09-30T16:44:49;20.17;;;3.60;;
16181;SDS011;8197;51.664;7.114;2023-09-30T16:49:52;30.73;;;5.70;;
16181;SDS011;8197;51.664;7.114;2023-09-30T16:54:55;23.43;;;5.70;;
16181;SDS011;8197;51.664;7.114;2023-09-30T17:00:00;24.53;;;6.10;;
16181;SDS011;8197;51.664;7.114;2023-09-30T17:05:05;22.47;;;5.37;;
16181;SDS011;8197;51.664;7.114;2023-09-30T17:10:08;22.50;;;5.50;;
16181;SDS011;8197;51.664;7.114;2023-09-30T17:15:13;25.90;;;5.90;;
16181;SDS011;8197;51.664;7.114;2023-09-30T17:20:16;25.53;;;5.63;;
16181;SDS011;8197;51.664;7.114;2023-09-30T17:25:19;25.47;;;5.43;;
16181;SDS011;8197;51.664;7.114;2023-09-30T17:30:24;22.77;;;5.50;;
16181;SDS011;8197;51.664;7.114;2023-09-30T17:35:41;24.03;;;6.30;;
16181;SDS011;8197;51.664;7.114;2023-09-30T17:40:44;22.23;;;5.93;;
16181;SDS011;8197;51.664;7.114;2023-09-30T17:45:48;25.13;;;6.30;;
16181;SDS011;8197;51.664;7.114;2023-09-30T17:50:51;27.87;;;5.47;;
16181;SDS011;8197;51.664;7.114;2023-09-30T17:55:54;22.57;;;5.70;;
16181;SDS011;8197;51.664;7.114;2023-09-30T18:00:58;24.10;;;5.80;;
16181;SDS011;8197;51.664;7.114;2023-09-30T18:06:04;22.90;;;5.30;;
16181;SDS011;8197;51.664;7.114;2023-09-30T18:11:08;22.90;;;5.00;;
16181;SDS011;8197;51.664;7.114;2023-09-30T18:16:14;21.37;;;5.07;;
16181;SDS011;8197;51.664;7.114;2023-09-30T18:21:17;23.10;;;5.47;;
16181;SDS011;8197;51.664;7.114;2023-09-30T18:26:20;20.33;;;4.70;;
16181;SDS011;8197;51.664;7.114;2023-09-30T18:31:25;22.93;;;5.73;;
16181;SDS011;8197;51.664;7.114;2023-09-30T18:36:28;21.30;;;5.00;;
16181;SDS011;8197;51.664;7.114;2023-09-30T18:41:31;24.50;;;5.97;;
16181;SDS011;8197;51.664;7.114;2023-09-30T18:46:35;19.73;;;5.10;;
16181;SDS011;8197;51.664;7.114;2023-09-30T18:51:38;24.20;;;6.07;;
16181;SDS011;8197;51.664;7.114;2023-09-30T18:56:41;22.57;;;5.10;;
16181;SDS011;8197;51.664;7.114;2023-09-30T19:01:47;25.47;;;5.83;;
16181;SDS011;8197;51.664;7.114;2023-09-30T19:06:50;21.83;;;6.07;;
16181;SDS011;8197;51.664;7.114;2023-09-30T19:11:53;26.43;;;7.90;;
16181;SDS011;8197;51.664;7.114;2023-09-30T19:16:58;26.70;;;6.57;;
16181;SDS011;8197;51.664;7.114;2023-09-30T19:22:00;22.87;;;7.03;;
16181;SDS011;8197;51.664;7.114;2023-09-30T19:27:03;26.93;;;7.40;;
16181;SDS011;8197;51.664;7.114;2023-09-30T19:32:08;33.90;;;14.07;;
16181;SDS011;8197;51.664;7.114;2023-09-30T19:37:11;37.30;;;16.00;;
16181;SDS011;8197;51.664;7.114;2023-09-30T19:42:14;28.40;;;9.60;;
16181;SDS011;8197;51.664;7.114;2023-09-30T19:47:19;28.93;;;8.10;;
16181;SDS011;8197;51.664;7.114;2023-09-30T19:52:23;26.57;;;7.70;;
16181;SDS011;8197;51.664;7.114;2023-09-30T19:57:30;30.13;;;7.30;;
16181;SDS011;8197;51.664;7.114;2023-09-30T20:02:34;30.13;;;7.83;;
16181;SDS011;8197;51.664;7.114;2023-09-30T20:07:38;23.90;;;6.63;;
16181;SDS011;8197;51.664;7.114;2023-09-30T20:12:41;21.13;;;5.70;;
16181;SDS011;8197;51.664;7.114;2023-09-30T20:17:46;23.83;;;7.00;;
16181;SDS011;8197;51.664;7.114;2023-09-30T20:22:51;24.80;;;7.00;;
16181;SDS011;8197;51.664;7.114;2023-09-30T20:27:53;23.13;;;6.90;;
16181;SDS011;8197;51.664;7.114;2023-09-30T20:32:58;28.50;;;6.13;;
16181;SDS011;8197;51.664;7.114;2023-09-30T20:38:01;27.03;;;7.00;;
16181;SDS011;8197;51.664;7.114;2023-09-30T20:43:05;29.53;;;7.97;;
16181;SDS011;8197;51.664;7.114;2023-09-30T20:48:10;25.00;;;6.97;;
16181;SDS011;8197;51.664;7.114;2023-09-30T20:53:12;23.47;;;6.60;;
16181;SDS011;8197;51.664;7.114;2023-09-30T20:58:15;24.73;;;6.40;;
16181;SDS011;8197;51.664;7.114;2023-09-30T21:03:22;24.27;;;6.60;;
16181;SDS011;8197;51.664;7.114;2023-09-30T21:08:25;21.50;;;5.50;;
16181;SDS011;8197;51.664;7.114;2023-09-30T21:13:28;25.17;;;6.40;;
16181;SDS011;8197;51.664;7.114;2023-09-30T21:18:33;22.23;;;5.93;;
16181;SDS011;8197;51.664;7.114;2023-09-30T21:23:36;25.83;;;6.77;;
16181;SDS011;8197;51.664;7.114;2023-09-30T21:28:39;28.67;;;8.47;;
16181;SDS011;8197;51.664;7.114;2023-09-30T21:33:45;25.60;;;6.40;;
16181;SDS011;8197;51.664;7.114;2023-09-30T21:38:49;23.77;;;5.60;;
16181;SDS011;8197;51.664;7.114;2023-09-30T21:43:52;29.80;;;7.50;;
16181;SDS011;8197;51.664;7.114;2023-09-30T21:48:56;26.40;;;6.37;;
16181;SDS011;8197;51.664;7.114;2023-09-30T21:54:00;24.23;;;6.37;;
16181;SDS011;8197;51.664;7.114;2023-09-30T21:59:02;23.87;;;6.30;;
16181;SDS011;8197;51.664;7.114;2023-09-30T22:04:07;26.43;;;8.27;;
16181;SDS011;8197;51.664;7.114;2023-09-30T22:09:10;21.93;;;6.00;;
16181;SDS011;8197;51.664;7.114;2023-09-30T22:14:13;23.30;;;5.80;;
16181;SDS011;8197;51.664;7.114;2023-09-30T22:19:18;22.20;;;5.80;;
16181;SDS011;8197;51.664;7.114;2023-09-30T22:24:23;25.17;;;5.70;;
16181;SDS011;8197;51.664;7.114;2023-09-30T22:29:26;22.40;;;5.43;;
16181;SDS011;8197;51.664;7.114;2023-09-30T22:34:30;25.50;;;6.67;;
16181;SDS011;8197;51.664;7.114;2023-09-30T22:39:33;24.23;;;6.10;;
16181;SDS011;8197;51.664;7.114;2023-09-30T22:44:36;27.40;;;7.90;;
16181;SDS011;8197;51.664;7.114;2023-09-30T22:49:40;26.00;;;7.97;;
16181;SDS011;8197;51.664;7.114;2023-09-30T22:54:43;27.10;;;7.83;;
16181;SDS011;8197;51.664;7.114;2023-09-30T22:59:46;26.20;;;8.13;;
16181;SDS011;8197;51.664;7.114;2023-09-30T23:04:50;21.10;;;5.23;;
16181;SDS011;8197;51.664;7.114;2023-09-30T23:09:53;26.40;;;8.57;;
16181;SDS011;8197;51.664;7.114;2023-09-30T23:14:56;27.47;;;7.80;;
16181;SDS011;8197;51.664;7.114;2023-09-30T23:20:01;28.77;;;8.90;;
16181;SDS011;8197;51.664;7.114;2023-09-30T23:25:05;26.50;;;8.20;;
16181;SDS011;8197;51.664;7.114;2023-09-30T23:30:12;22.17;;;6.30;;
16181;SDS011;8197;51.664;7.114;2023-09-30T23:35:19;26.80;;;7.53;;
16181;SDS011;8197;51.664;7.114;2023-09-30T23:40:26;29.40;;;8.33;;
16181;SDS011;8197;51.664;7.114;2023-09-30T23:45:29;28.40;;;8.20;;
16181;SDS011;8197;51.664;7.114;2023-09-30T23:50:37;31.37;;;9.57;;
16181;SDS011;8197;51.664;7.114;2023-09-30T23:55:42;28.80;;;9.30;;
